Time;durP1;ratioP1;P1;durP2;ratioP2;P2;SDS_P1;SDS_P2;PMS_P1;PMS_P2;Temp;Humidity;BMP_temperature;BMP_pressure;BME280_temperature;BME280_humidity;BME280_pressure;Samples;Min_cycle;Max_cycle;Signal;HPM_P1;HPM_P2
2023/12/28 00:00:25;;;;;;;3.85;3.08;;;;;;;9.77;73.69;100804.78;5091032;28;20032;-67
2023/12/28 00:02:51;;;;;;;3.95;3.17;;;;;;;9.78;73.81;100806.47;5090182;28;20048;-67
2023/12/28 00:05:19;;;;;;;3.63;3.20;;;;;;;9.77;74.19;100808.38;5090278;28;20058;-67
2023/12/28 00:07:44;;;;;;;3.85;3.45;;;;;;;9.78;74.26;100817.53;5091162;28;20031;-67
2023/12/28 00:10:10;;;;;;;6.95;3.08;;;;;;;9.78;74.23;100806.47;5089364;28;20028;-67
2023/12/28 00:12:35;;;;;;;4.43;3.22;;;;;;;9.78;74.46;100825.84;5088059;28;20024;-67
2023/12/28 00:15:00;;;;;;;4.10;3.10;;;;;;;9.77;74.48;100816.72;5098712;28;20432;-68
2023/12/28 00:17:26;;;;;;;4.88;3.25;;;;;;;9.77;74.74;100815.88;5097338;28;20061;-67
2023/12/28 00:19:51;;;;;;;3.53;3.13;;;;;;;9.75;74.94;100826.38;5091031;28;20032;-68
2023/12/28 00:22:16;;;;;;;3.97;2.92;;;;;;;9.75;75.17;100821.69;5091413;28;20028;-67
2023/12/28 00:24:41;;;;;;;4.20;3.17;;;;;;;9.76;75.31;100830.84;5088990;28;20027;-68
2023/12/28 00:27:07;;;;;;;3.58;3.08;;;;;;;9.76;75.42;100836.38;5091954;28;20458;-67
2023/12/28 00:29:33;;;;;;;3.95;3.40;;;;;;;9.75;75.49;100841.06;5095195;28;20069;-67
2023/12/28 00:31:59;;;;;;;5.18;3.60;;;;;;;9.75;75.73;100854.09;5092276;28;20091;-67
2023/12/28 00:34:24;;;;;;;3.85;3.47;;;;;;;9.75;75.88;100838.31;5092881;28;20158;-68
2023/12/28 00:36:50;;;;;;;5.05;3.42;;;;;;;9.74;76.14;100846.84;5090706;28;20032;-67
2023/12/28 00:39:15;;;;;;;4.18;3.38;;;;;;;9.76;76.52;100847.47;5101057;28;20024;-68
2023/12/28 00:41:40;;;;;;;4.88;3.10;;;;;;;9.75;76.17;100841.06;5094764;28;20039;-68
2023/12/28 00:44:09;;;;;;;3.58;3.25;;;;;;;9.77;76.44;100860.22;5093906;28;20106;-67
2023/12/28 00:46:37;;;;;;;4.78;3.63;;;;;;;9.76;76.55;100842.75;5094531;28;20031;-67
2023/12/28 00:49:02;;;;;;;4.30;3.58;;;;;;;9.75;76.72;100845.78;5094333;28;20032;-67
2023/12/28 00:51:28;;;;;;;4.18;3.53;;;;;;;9.75;76.87;100854.94;5081420;28;20082;-67
2023/12/28 00:53:53;;;;;;;5.38;3.35;;;;;;;9.75;76.91;100854.09;5093350;28;20028;-67
2023/12/28 00:56:20;;;;;;;5.57;3.40;;;;;;;9.77;76.70;100861.06;5096637;28;20036;-67
2023/12/28 00:58:46;;;;;;;5.47;3.80;;;;;;;9.78;77.24;100861.91;5094669;28;20035;-67
2023/12/28 01:01:11;;;;;;;4.65;3.55;;;;;;;9.80;77.17;100862.50;5094381;28;20020;-67
2023/12/28 01:03:36;;;;;;;4.82;3.65;;;;;;;9.81;77.18;100858.63;5095264;28;20039;-67
2023/12/28 01:06:01;;;;;;;5.57;3.50;;;;;;;9.79;77.09;100858.91;5093727;28;20052;-67
2023/12/28 01:08:27;;;;;;;3.75;3.35;;;;;;;9.78;77.35;100861.91;5099731;28;20027;-67
2023/12/28 01:10:58;;;;;;;5.38;3.50;;;;;;;9.79;77.56;100863.59;5093549;28;20028;-68
2023/12/28 01:13:23;;;;;;;5.68;3.50;;;;;;;9.80;77.61;100871.66;5073652;28;20028;-67
2023/12/28 01:15:48;;;;;;;5.90;3.40;;;;;;;9.80;77.60;100877.19;5087184;28;20422;-67
2023/12/28 01:18:16;;;;;;;4.93;3.58;;;;;;;9.81;77.74;100865.03;5094173;28;20405;-67
2023/12/28 01:20:41;;;;;;;7.35;3.53;;;;;;;9.82;77.73;100874.16;5086102;28;20043;-67
2023/12/28 01:23:09;;;;;;;7.15;3.70;;;;;;;9.82;77.98;100882.50;5092883;28;20085;-67
2023/12/28 01:25:35;;;;;;;5.45;3.35;;;;;;;9.83;77.99;100895.28;5093972;28;20120;-67
2023/12/28 01:28:01;;;;;;;3.85;3.40;;;;;;;9.84;78.07;100888.66;5078009;28;20099;-67
2023/12/28 01:30:26;;;;;;;4.15;3.30;;;;;;;9.86;78.14;100882.84;5086970;28;20546;-67
2023/12/28 01:32:51;;;;;;;5.28;3.20;;;;;;;9.86;78.22;100883.69;5088212;28;20027;-67
2023/12/28 01:35:19;;;;;;;6.53;3.50;;;;;;;9.85;78.30;100879.22;5087434;28;20052;-67
2023/12/28 01:37:45;;;;;;;3.83;3.10;;;;;;;9.83;78.42;100884.19;5090990;28;20053;-67
2023/12/28 01:40:10;;;;;;;5.15;3.17;;;;;;;9.86;78.08;100893.94;5102187;28;20016;-67
2023/12/28 01:42:41;;;;;;;5.35;3.40;;;;;;;9.83;78.61;100900.81;5093123;28;20038;-67
2023/12/28 01:45:07;;;;;;;5.18;3.75;;;;;;;9.83;78.33;100898.06;5093501;28;20157;-67
2023/12/28 01:47:32;;;;;;;4.65;3.10;;;;;;;9.82;78.66;100901.88;5093508;28;20491;-67
2023/12/28 01:49:59;;;;;;;4.20;3.00;;;;;;;9.83;78.58;100889.75;5091552;28;20028;-67
2023/12/28 01:52:25;;;;;;;4.85;2.97;;;;;;;9.83;78.59;100906.38;5089913;28;20016;-67
2023/12/28 01:54:53;;;;;;;7.07;3.40;;;;;;;9.83;78.66;100892.50;5106896;28;20035;-67
2023/12/28 01:57:19;;;;;;;4.72;3.15;;;;;;;9.81;78.76;100901.06;5092319;28;20099;-66
2023/12/28 01:59:44;;;;;;;5.68;3.42;;;;;;;9.84;78.64;100900.56;5093340;28;20035;-67
2023/12/28 02:02:11;;;;;;;5.15;3.03;;;;;;;9.86;78.67;100908.63;5092911;28;20042;-67
2023/12/28 02:04:36;;;;;;;3.83;3.10;;;;;;;9.86;78.68;100905.84;5092963;28;20119;-67
2023/12/28 02:07:02;;;;;;;6.57;3.20;;;;;;;9.88;78.67;100895.38;5092889;28;20114;-67
2023/12/28 02:09:27;;;;;;;5.45;3.00;;;;;;;9.86;79.25;100903.09;5085402;28;20032;-67
2023/12/28 02:11:54;;;;;;;3.50;3.10;;;;;;;9.87;78.86;100906.72;5092641;28;20483;-67
2023/12/28 02:14:20;;;;;;;3.95;3.08;;;;;;;9.85;78.96;100904.19;5091662;28;20032;-67
2023/12/28 02:17:29;;;;;;;4.60;2.95;;;;;;;9.89;79.02;100905.38;5092255;28;20497;-67
2023/12/28 02:19:55;;;;;;;4.53;2.85;;;;;;;9.87;79.21;100910.34;5046338;28;20361;-67
2023/12/28 02:22:26;;;;;;;6.47;3.08;;;;;;;9.87;79.15;100915.88;5088531;28;20027;-67
2023/12/28 02:25:00;;;;;;;6.00;3.20;;;;;;;9.89;79.13;100908.13;5087192;28;20039;-67
2023/12/28 02:27:26;;;;;;;5.20;3.30;;;;;;;9.88;79.06;100905.63;5092443;28;20067;-67
2023/12/28 02:29:52;;;;;;;7.30;3.25;;;;;;;9.88;78.59;100909.25;5108529;28;20070;-67
2023/12/28 02:32:22;;;;;;;5.20;3.30;;;;;;;9.87;79.23;100912.28;5095804;28;20024;-67
2023/12/28 02:34:56;;;;;;;6.22;3.17;;;;;;;9.88;78.82;100905.63;5097144;28;20119;-67
2023/12/28 02:37:22;;;;;;;5.82;3.30;;;;;;;9.87;78.94;100896.47;5091201;28;20036;-67
2023/12/28 02:39:50;;;;;;;6.95;3.72;;;;;;;9.88;78.85;100883.44;5092697;28;20086;-67
2023/12/28 02:42:16;;;;;;;6.45;3.10;;;;;;;9.90;78.60;100903.44;5092854;28;20031;-67
2023/12/28 02:44:44;;;;;;;4.32;3.03;;;;;;;9.88;79.02;100895.38;5092166;28;20730;-68
2023/12/28 02:47:09;;;;;;;3.40;2.80;;;;;;;9.89;79.04;100893.44;5092204;28;20559;-67
2023/12/28 02:49:34;;;;;;;4.88;2.90;;;;;;;9.90;78.83;100903.44;5092081;28;20111;-67
2023/12/28 02:51:59;;;;;;;3.88;3.00;;;;;;;9.84;79.10;100892.25;5088857;28;20020;-67
2023/12/28 02:54:25;;;;;;;4.38;2.95;;;;;;;9.85;78.94;100893.09;5096037;28;20030;-67
2023/12/28 02:56:50;;;;;;;6.00;2.80;;;;;;;9.84;79.28;100886.72;5104827;28;20647;-67
2023/12/28 02:59:15;;;;;;;7.90;3.00;;;;;;;9.82;79.16;100874.16;5093154;28;20042;-67
2023/12/28 03:01:40;;;;;;;7.28;3.17;;;;;;;9.83;79.38;100885.03;5103525;28;20066;-67
2023/12/28 03:04:06;;;;;;;4.13;2.83;;;;;;;9.84;79.12;100885.88;5109242;28;20038;-67
2023/12/28 03:06:31;;;;;;;7.22;3.22;;;;;;;9.83;79.25;100882.25;5091918;28;20151;-67
2023/12/28 03:08:56;;;;;;;4.53;3.08;;;;;;;9.81;79.46;100876.09;5093545;28;20028;-67
2023/12/28 03:11:22;;;;;;;3.60;2.30;;;;;;;9.83;79.13;100875.88;5097923;28;20258;-67
2023/12/28 03:13:48;;;;;;;5.88;2.90;;;;;;;9.82;79.07;100868.63;5101662;28;20400;-67
2023/12/28 03:16:16;;;;;;;5.47;3.20;;;;;;;9.79;78.94;100871.91;5094039;28;20067;-67
2023/12/28 03:18:41;;;;;;;5.68;3.15;;;;;;;9.80;78.94;100876.38;5098190;28;20058;-67
2023/12/28 03:21:06;;;;;;;4.18;2.53;;;;;;;9.83;79.13;100881.41;5101796;28;20055;-67
2023/12/28 03:23:38;;;;;;;5.45;2.88;;;;;;;9.83;78.85;100890.56;5091734;28;20058;-67
2023/12/28 03:26:03;;;;;;;6.70;3.00;;;;;;;9.86;78.54;100886.44;5091095;28;20044;-67
2023/12/28 03:28:29;;;;;;;3.33;2.33;;;;;;;9.86;78.87;100882.84;5102096;28;20031;-67
2023/12/28 03:30:54;;;;;;;4.53;2.70;;;;;;;9.86;78.67;100888.38;5099097;28;20053;-67
2023/12/28 03:33:19;;;;;;;6.22;3.03;;;;;;;9.88;78.84;100905.63;5092079;28;20028;-67
2023/12/28 03:35:44;;;;;;;6.82;2.75;;;;;;;9.91;78.60;100905.13;5107446;28;20036;-67
2023/12/28 03:38:10;;;;;;;5.93;2.78;;;;;;;9.91;78.87;100905.13;5095064;28;20480;-67
2023/12/28 03:40:35;;;;;;;5.22;2.55;;;;;;;9.90;78.60;100895.94;5105859;28;20035;-67
2023/12/28 03:43:00;;;;;;;6.13;2.83;;;;;;;9.92;77.85;100904.03;5093107;28;20036;-66
2023/12/28 03:45:25;;;;;;;5.03;2.53;;;;;;;9.93;77.68;100889.91;5093416;28;20108;-66
2023/12/28 03:47:51;;;;;;;10.55;2.80;;;;;;;9.92;77.22;100896.56;5100757;28;20383;-67
2023/12/28 03:50:25;;;;;;;6.63;2.80;;;;;;;9.96;77.46;100903.28;5108356;28;20028;-67
2023/12/28 03:52:50;;;;;;;4.30;2.30;;;;;;;9.96;77.01;100892.19;5091223;28;20380;-67
2023/12/28 03:55:16;;;;;;;7.13;2.33;;;;;;;9.97;77.02;100882.78;5091358;28;20028;-67
2023/12/28 03:57:46;;;;;;;6.82;2.90;;;;;;;9.99;76.83;100888.94;5089725;28;20027;-67
2023/12/28 04:00:11;;;;;;;7.97;2.53;;;;;;;10.01;76.55;100878.41;5096586;28;20070;-67
2023/12/28 04:02:37;;;;;;;9.30;3.08;;;;;;;10.04;76.71;100871.56;5090482;28;20052;-67
2023/12/28 04:05:02;;;;;;;7.60;2.65;;;;;;;10.04;76.42;100889.03;5091388;28;20086;-67
2023/12/28 04:07:27;;;;;;;8.02;3.17;;;;;;;10.04;76.68;100894.56;5082166;28;20036;-67
2023/12/28 04:09:53;;;;;;;5.55;2.20;;;;;;;10.07;76.93;100888.53;5090658;28;20032;-67
2023/12/28 04:12:18;;;;;;;5.60;2.38;;;;;;;10.07;76.33;100896.00;5090610;28;20024;-67
2023/12/28 04:14:43;;;;;;;6.20;2.72;;;;;;;10.06;76.34;100889.63;5096370;28;20023;-67
2023/12/28 04:17:08;;;;;;;7.95;2.72;;;;;;;10.07;75.99;100893.25;5098361;28;20024;-67
2023/12/28 04:19:34;;;;;;;9.10;2.70;;;;;;;10.09;76.34;100899.38;5090869;28;20028;-67
2023/12/28 04:21:59;;;;;;;8.05;2.83;;;;;;;10.08;75.91;100906.84;5091491;28;20078;-67
2023/12/28 04:24:24;;;;;;;6.18;2.42;;;;;;;10.09;76.06;100902.97;5086465;28;20029;-67
2023/12/28 04:26:49;;;;;;;7.57;2.63;;;;;;;10.09;75.83;100899.38;5090657;28;20479;-67
2023/12/28 04:29:15;;;;;;;10.43;2.90;;;;;;;10.10;75.55;100906.63;5090810;28;20020;-67
2023/12/28 04:31:41;;;;;;;9.20;2.70;;;;;;;10.13;75.30;100896.94;5093544;28;20028;-67
2023/12/28 04:34:07;;;;;;;8.52;2.83;;;;;;;10.11;75.21;100899.97;5081852;28;20033;-67
2023/12/28 04:36:32;;;;;;;10.60;2.85;;;;;;;10.12;75.32;100900.81;5078312;28;20070;-67
2023/12/28 04:38:57;;;;;;;6.57;2.65;;;;;;;10.12;75.43;100898.03;5090850;28;20077;-67
2023/12/28 04:41:23;;;;;;;7.25;2.78;;;;;;;10.13;75.63;100908.88;5090573;28;20387;-67
2023/12/28 04:43:48;;;;;;;6.68;2.78;;;;;;;10.15;75.20;100903.94;5089651;28;20111;-67
2023/12/28 04:46:13;;;;;;;5.75;2.75;;;;;;;10.14;75.31;100896.72;5104750;28;20042;-67
2023/12/28 04:48:38;;;;;;;7.18;2.65;;;;;;;10.14;75.27;100898.63;5087865;28;20028;-67
2023/12/28 04:51:04;;;;;;;6.30;2.70;;;;;;;10.15;75.35;100897.53;5091465;28;20032;-67
2023/12/28 04:53:29;;;;;;;8.52;2.78;;;;;;;10.16;74.84;100890.91;5087790;28;20024;-67
2023/12/28 04:55:55;;;;;;;10.93;3.17;;;;;;;10.15;74.87;100895.59;5088951;28;20043;-67
2023/12/28 04:58:20;;;;;;;9.10;2.78;;;;;;;10.17;74.76;100900.91;5092907;28;20023;-67
2023/12/28 05:00:46;;;;;;;11.88;2.83;;;;;;;10.19;74.84;100896.78;5090100;28;20031;-67
2023/12/28 05:03:11;;;;;;;10.30;2.88;;;;;;;10.19;74.36;100893.19;5097808;28;20025;-67
2023/12/28 05:05:39;;;;;;;8.88;3.20;;;;;;;10.20;74.21;100909.56;5082969;28;20436;-67
2023/12/28 05:08:04;;;;;;;9.05;3.30;;;;;;;10.20;74.30;100912.34;5097013;28;20466;-66
2023/12/28 05:10:30;;;;;;;9.63;2.53;;;;;;;10.20;74.20;100926.22;5084113;28;20043;-66
2023/12/28 05:12:55;;;;;;;9.50;2.60;;;;;;;10.23;74.25;100924.88;5083711;28;20027;-66
2023/12/28 05:15:20;;;;;;;10.57;3.00;;;;;;;10.23;74.06;100927.66;5074550;28;20082;-66
2023/12/28 05:17:45;;;;;;;11.60;2.97;;;;;;;10.23;73.69;100916.56;5107392;28;20049;-67
2023/12/28 05:20:11;;;;;;;11.82;3.40;;;;;;;10.21;73.81;100924.28;5089371;28;20020;-67
2023/12/28 05:22:36;;;;;;;13.55;3.05;;;;;;;10.23;73.62;100914.63;5092002;28;20062;-67
2023/12/28 05:25:02;;;;;;;12.30;3.33;;;;;;;10.24;73.65;100904.34;5088609;28;20032;-66
2023/12/28 05:27:27;;;;;;;9.10;2.75;;;;;;;10.23;73.85;100886.03;5080520;28;20023;-66
2023/12/28 05:29:52;;;;;;;8.30;2.10;;;;;;;10.23;73.41;100894.38;5095842;28;20392;-67
2023/12/28 05:32:17;;;;;;;10.82;2.80;;;;;;;10.21;73.27;100910.41;5094574;28;20035;-66
2023/12/28 05:34:43;;;;;;;12.30;2.70;;;;;;;10.20;72.97;100904.00;5102240;28;20117;-67
2023/12/28 05:37:08;;;;;;;9.88;2.78;;;;;;;10.19;73.18;100905.13;5074593;28;20383;-67
2023/12/28 05:39:33;;;;;;;10.10;2.42;;;;;;;10.17;72.92;100906.44;5097434;28;20525;-67
2023/12/28 05:41:59;;;;;;;10.85;2.75;;;;;;;10.16;72.82;100913.94;5075779;28;20062;-66
2023/12/28 05:44:24;;;;;;;14.48;3.45;;;;;;;10.14;72.49;100907.81;5090774;28;20055;-66
2023/12/28 05:46:49;;;;;;;11.23;2.97;;;;;;;10.16;72.70;100907.53;5078148;28;20799;-66
2023/12/28 05:49:15;;;;;;;10.52;2.78;;;;;;;10.18;73.10;100917.31;5113905;28;20020;-66
2023/12/28 05:51:40;;;;;;;10.27;2.65;;;;;;;10.19;72.71;100920.91;5100686;28;20036;-67
2023/12/28 05:54:06;;;;;;;10.63;3.08;;;;;;;10.17;72.73;100912.81;5096691;27;20031;-66
2023/12/28 05:56:32;;;;;;;10.27;2.92;;;;;;;10.16;72.49;100930.56;5093303;28;20033;-66
2023/12/28 05:58:57;;;;;;;11.95;2.72;;;;;;;10.16;72.83;100922.25;5104106;28;20031;-67
2023/12/28 06:01:22;;;;;;;7.72;2.80;;;;;;;10.16;72.71;100919.47;5093977;28;20031;-67
2023/12/28 06:03:49;;;;;;;9.93;2.90;;;;;;;10.16;72.75;100941.66;5093131;28;20036;-66
2023/12/28 06:06:15;;;;;;;11.27;3.05;;;;;;;10.16;73.13;100927.78;5082956;28;20052;-66
2023/12/28 06:08:40;;;;;;;14.82;3.42;;;;;;;10.19;72.47;100923.69;5090321;28;20038;-66
2023/12/28 06:11:05;;;;;;;15.25;3.53;;;;;;;10.21;72.64;100935.38;5093654;28;20031;-66
2023/12/28 06:13:31;;;;;;;16.38;2.72;;;;;;;10.20;72.82;100942.00;5079762;28;20052;-67
2023/12/28 06:15:56;;;;;;;11.13;2.95;;;;;;;10.21;73.08;100943.69;5087292;28;20074;-67
2023/12/28 06:18:21;;;;;;;11.18;2.67;;;;;;;10.24;72.80;100938.47;5091281;28;20066;-66
2023/12/28 06:20:47;;;;;;;10.40;2.50;;;;;;;10.24;72.97;100948.75;5096030;28;20029;-68
2023/12/28 06:23:12;;;;;;;10.10;2.78;;;;;;;10.24;72.86;100943.19;5088263;28;20032;-67
2023/12/28 06:25:37;;;;;;;13.02;3.33;;;;;;;10.26;73.32;100952.16;5078540;28;20369;-70
2023/12/28 06:28:06;;;;;;;10.85;2.72;;;;;;;10.26;72.74;100929.97;5072672;28;20032;-65
2023/12/28 06:30:31;;;;;;;11.68;2.88;;;;;;;10.25;72.77;100942.97;5088780;28;20351;-66
2023/12/28 06:32:56;;;;;;;15.48;3.35;;;;;;;10.27;72.73;100953.84;5101524;28;20024;-66
2023/12/28 06:35:24;;;;;;;13.32;3.40;;;;;;;10.27;72.89;100953.84;5098304;28;20044;-66
2023/12/28 06:37:50;;;;;;;8.90;2.67;;;;;;;10.25;72.50;100945.75;5075589;28;20062;-65
2023/12/28 06:40:15;;;;;;;9.98;2.70;;;;;;;10.25;72.88;100951.28;5083877;28;20036;-66
2023/12/28 06:42:43;;;;;;;13.90;2.92;;;;;;;10.24;72.41;100954.28;5083163;28;20032;-65
2023/12/28 06:45:11;;;;;;;15.30;3.53;;;;;;;10.23;72.42;100964.56;5104202;28;20026;-66
2023/12/28 06:47:36;;;;;;;12.35;3.13;;;;;;;10.24;72.43;100954.28;5091876;28;20099;-66
2023/12/28 06:50:02;;;;;;;10.70;2.78;;;;;;;10.24;72.41;100957.91;5107317;28;20035;-66
2023/12/28 06:52:27;;;;;;;12.85;3.08;;;;;;;10.25;72.20;100964.31;5092956;28;20107;-66
2023/12/28 06:54:53;;;;;;;11.40;2.78;;;;;;;10.26;72.25;100963.25;5102347;28;20058;-66
2023/12/28 06:57:18;;;;;;;13.30;3.35;;;;;;;10.26;71.95;100968.81;5077617;28;20035;-62
2023/12/28 06:59:44;;;;;;;11.43;2.70;;;;;;;10.24;71.80;100957.06;5083102;28;20039;-63
2023/12/28 07:02:09;;;;;;;12.82;3.28;;;;;;;10.22;71.33;100950.94;5103872;28;20482;-62
2023/12/28 07:04:34;;;;;;;14.25;2.95;;;;;;;10.22;72.06;100962.88;5095661;28;20055;-64
2023/12/28 07:07:00;;;;;;;18.10;3.60;;;;;;;10.20;71.96;100964.19;5100619;28;20029;-64
2023/12/28 07:09:25;;;;;;;12.05;3.15;;;;;;;10.21;72.09;100968.66;5101404;28;20151;-64
2023/12/28 07:11:50;;;;;;;16.55;3.58;;;;;;;10.18;72.16;100953.38;5094692;28;20029;-62
2023/12/28 07:14:15;;;;;;;14.32;3.17;;;;;;;10.19;71.87;100959.75;5100195;28;20020;-62
2023/12/28 07:16:41;;;;;;;14.95;3.47;;;;;;;10.22;72.19;100976.75;5102750;28;20031;-63
2023/12/28 07:19:06;;;;;;;14.27;3.40;;;;;;;10.22;71.97;100973.13;5075665;28;20097;-64
2023/12/28 07:21:32;;;;;;;10.98;3.13;;;;;;;10.20;71.96;100976.13;5095933;28;20424;-63
2023/12/28 07:23:57;;;;;;;15.88;3.63;;;;;;;10.21;72.06;100979.75;5099797;28;20033;-67
2023/12/28 07:26:22;;;;;;;14.15;2.70;;;;;;;10.20;72.01;100987.22;5102862;28;20088;-65
2023/12/28 07:28:48;;;;;;;12.57;2.83;;;;;;;10.23;72.51;100997.00;5077762;28;20032;-64
2023/12/28 07:31:27;;;;;;;13.27;3.15;;;;;;;10.21;72.38;101004.72;5097802;28;20055;-64
2023/12/28 07:33:53;;;;;;;11.13;2.80;;;;;;;10.22;72.45;100998.09;5097294;28;20405;-64
2023/12/28 07:36:18;;;;;;;12.82;3.00;;;;;;;10.19;72.35;101001.34;5105176;28;20037;-64
2023/12/28 07:38:44;;;;;;;17.90;3.45;;;;;;;10.21;72.52;101004.72;5087832;28;20483;-65
2023/12/28 07:41:09;;;;;;;11.68;2.72;;;;;;;10.23;72.70;100997.00;5085875;28;20028;-64
2023/12/28 07:43:36;;;;;;;16.50;2.88;;;;;;;10.22;72.31;100995.31;5079325;28;20039;-64
2023/12/28 07:46:01;;;;;;;15.27;3.70;;;;;;;10.22;72.61;101011.97;5087136;28;20032;-63
2023/12/28 07:48:26;;;;;;;12.23;3.30;;;;;;;10.24;72.77;101020.88;5086685;28;20028;-64
2023/12/28 07:50:52;;;;;;;15.65;3.45;;;;;;;10.23;72.70;101028.34;5098933;28;20058;-63
2023/12/28 07:53:17;;;;;;;17.13;3.35;;;;;;;10.19;72.86;101012.47;5087793;28;20367;-63
2023/12/28 07:55:42;;;;;;;15.23;3.13;;;;;;;10.17;72.91;101014.63;5086030;28;20039;-63
2023/12/28 07:58:07;;;;;;;13.32;2.88;;;;;;;10.17;73.03;101025.72;5093311;28;20026;-62
2023/12/28 08:00:33;;;;;;;15.23;3.10;;;;;;;10.19;73.21;101023.56;5096363;28;20028;-63
2023/12/28 08:02:58;;;;;;;14.85;3.33;;;;;;;10.22;73.32;101025.84;5095179;28;20028;-63
2023/12/28 08:05:24;;;;;;;17.70;3.13;;;;;;;10.21;72.97;101024.97;5067797;28;20090;-63
2023/12/28 08:07:49;;;;;;;14.68;3.08;;;;;;;10.23;73.07;101013.66;5085093;28;20050;-63
2023/12/28 08:10:14;;;;;;;13.55;3.10;;;;;;;10.23;73.09;101033.91;5078760;28;20043;-64
2023/12/28 08:12:40;;;;;;;14.65;3.45;;;;;;;10.23;72.87;101038.63;5087901;28;20031;-64
2023/12/28 08:15:05;;;;;;;13.95;3.25;;;;;;;10.24;72.78;101045.84;5080457;28;20031;-64
2023/12/28 08:17:31;;;;;;;13.32;2.97;;;;;;;10.25;72.76;101044.78;5101838;28;20390;-63
2023/12/28 08:19:56;;;;;;;10.57;3.17;;;;;;;10.28;73.15;101034.03;5079426;28;20054;-64
2023/12/28 08:22:21;;;;;;;13.43;3.30;;;;;;;10.28;72.76;101041.50;5076347;28;20107;-65
2023/12/28 08:24:47;;;;;;;16.05;2.72;;;;;;;10.28;73.00;101022.94;5079737;28;20749;-64
2023/12/28 08:27:12;;;;;;;9.07;2.65;;;;;;;10.31;72.94;101027.16;5071150;28;20043;-63
2023/12/28 08:29:40;;;;;;;12.98;3.28;;;;;;;10.30;73.12;101042.97;5090736;28;20055;-64
2023/12/28 08:32:06;;;;;;;12.90;3.85;;;;;;;10.33;72.84;101024.97;5094291;28;20035;-64
2023/12/28 08:34:31;;;;;;;22.92;11.27;;;;;;;10.31;73.28;101033.53;5091106;28;20489;-64
2023/12/28 08:36:57;;;;;;;13.85;3.15;;;;;;;10.34;72.78;101021.13;5079378;28;20036;-65
2023/12/28 08:39:22;;;;;;;11.10;2.88;;;;;;;10.36;72.85;101035.56;5090693;28;20175;-65
2023/12/28 08:41:47;;;;;;;15.93;3.42;;;;;;;10.38;72.36;101027.84;5107401;28;20034;-65
2023/12/28 08:44:12;;;;;;;15.27;3.00;;;;;;;10.46;75.22;101030.22;5087329;28;20431;-64
2023/12/28 08:46:38;;;;;;;17.95;3.95;;;;;;;10.50;72.66;101027.81;5080241;28;20390;-65
2023/12/28 08:49:03;;;;;;;12.32;2.95;;;;;;;10.52;72.83;101033.94;5111741;28;20028;-66
2023/12/28 08:51:28;;;;;;;13.80;3.35;;;;;;;10.48;72.62;101050.22;5093893;27;20131;-65
2023/12/28 08:53:54;;;;;;;12.48;3.05;;;;;;;10.48;72.36;101041.91;5075617;28;20046;-63
2023/12/28 08:56:20;;;;;;;12.13;2.88;;;;;;;10.51;72.51;101057.22;5085775;28;20565;-64
2023/12/28 08:58:47;;;;;;;15.55;3.83;;;;;;;10.51;72.52;101055.28;5097264;28;20046;-62
2023/12/28 09:01:25;;;;;;;11.10;3.17;;;;;;;10.53;72.51;101063.38;5087835;28;20436;-63
2023/12/28 09:03:50;;;;;;;13.27;2.80;;;;;;;10.50;72.15;101067.50;5075623;28;20054;-64
2023/12/28 09:06:16;;;;;;;14.13;3.50;;;;;;;10.51;72.38;101076.66;5085151;28;20064;-64
2023/12/28 09:08:47;;;;;;;12.23;2.95;;;;;;;10.49;72.47;101068.59;5092493;28;20028;-63
2023/12/28 09:11:13;;;;;;;14.50;3.22;;;;;;;10.50;72.33;101074.97;5089948;28;20103;-63
2023/12/28 09:13:39;;;;;;;17.63;3.40;;;;;;;10.49;72.37;101078.81;5097163;28;20060;-63
2023/12/28 09:16:05;;;;;;;14.60;3.60;;;;;;;10.50;72.14;101086.91;5107998;28;20032;-63
2023/12/28 09:18:31;;;;;;;16.05;2.90;;;;;;;10.51;72.15;101088.59;5101109;28;20036;-63
2023/12/28 09:20:56;;;;;;;18.77;3.47;;;;;;;10.64;73.33;101097.72;5078621;28;20490;-62
2023/12/28 09:23:21;;;;;;;13.02;3.10;;;;;;;10.67;71.75;101086.13;5102239;28;20076;-63
2023/12/28 09:25:47;;;;;;;21.33;3.55;;;;;;;10.66;71.46;101090.00;5093636;28;20380;-63
2023/12/28 09:28:13;;;;;;;18.88;2.92;;;;;;;10.68;72.04;101085.88;5097325;28;20050;-64
2023/12/28 09:30:38;;;;;;;11.93;3.03;;;;;;;10.79;74.23;101089.69;5078456;28;20024;-63
2023/12/28 09:33:04;;;;;;;14.30;3.40;;;;;;;10.77;71.85;101097.44;5078235;28;20391;-63
2023/12/28 09:35:29;;;;;;;21.88;3.90;;;;;;;10.78;72.12;101091.63;5073261;28;20562;-62
2023/12/28 09:37:55;;;;;;;19.55;3.08;;;;;;;10.72;71.29;101094.53;5077131;28;20048;-62
2023/12/28 09:40:21;;;;;;;14.57;3.13;;;;;;;10.67;71.57;101097.22;5085064;28;20028;-62
2023/12/28 09:43:01;;;;;;;14.88;3.42;;;;;;;10.77;72.46;101094.66;5083221;28;20428;-62
2023/12/28 09:45:26;;;;;;;13.00;3.17;;;;;;;10.80;71.71;101094.97;5075369;28;20040;-63
2023/12/28 09:47:52;;;;;;;14.05;3.13;;;;;;;10.78;71.26;101107.44;5093971;27;20031;-63
2023/12/28 09:50:18;;;;;;;17.67;3.50;;;;;;;10.73;70.78;101110.13;5107357;28;20034;-63
2023/12/28 09:52:44;;;;;;;15.40;3.05;;;;;;;10.72;71.00;101116.75;5094044;28;20027;-63
2023/12/28 09:55:12;;;;;;;14.05;3.22;;;;;;;10.70;70.70;101113.41;5090338;28;20886;-63
2023/12/28 09:57:41;;;;;;;17.15;3.28;;;;;;;10.71;71.61;101124.25;5086799;27;20529;-63
2023/12/28 10:00:11;;;;;;;15.65;3.38;;;;;;;10.71;70.61;101117.84;5087257;28;20049;-63
2023/12/28 10:02:39;;;;;;;18.17;3.53;;;;;;;10.68;70.76;101127.50;5091816;28;20103;-63
2023/12/28 10:05:06;;;;;;;15.10;3.10;;;;;;;10.72;71.42;101125.09;5098058;28;20042;-63
2023/12/28 10:07:34;;;;;;;20.45;3.63;;;;;;;10.70;71.44;101124.50;5097338;28;20039;-64
2023/12/28 10:09:59;;;;;;;17.58;4.05;;;;;;;10.77;71.13;101133.53;5098270;28;20346;-63
2023/12/28 10:12:27;;;;;;;16.08;4.78;;;;;;;10.78;70.94;101138.00;5081851;28;20134;-62
2023/12/28 10:14:53;;;;;;;16.73;3.53;;;;;;;10.77;70.74;101125.22;5091885;28;20379;-61
2023/12/28 10:17:18;;;;;;;21.23;3.38;;;;;;;10.77;71.08;101126.03;5096815;28;20034;-61
2023/12/28 10:19:47;;;;;;;9.25;2.90;;;;;;;11.09;76.14;101119.13;5074313;28;20472;-64
2023/12/28 10:22:13;;;;;;;15.80;3.53;;;;;;;10.88;71.18;101131.78;5088200;28;20028;-62
2023/12/28 10:24:43;;;;;;;15.05;4.18;;;;;;;10.87;70.95;101130.09;5088248;28;20020;-60
2023/12/28 10:27:09;;;;;;;15.32;4.50;;;;;;;10.84;71.06;101134.19;5094397;28;20032;-64
2023/12/28 10:29:34;;;;;;;18.75;4.53;;;;;;;10.82;70.50;101123.34;5094854;28;20429;-62
2023/12/28 10:32:00;;;;;;;14.38;3.75;;;;;;;10.81;70.81;101123.63;5092098;28;20487;-60
2023/12/28 10:34:26;;;;;;;17.30;3.20;;;;;;;10.79;70.75;101128.56;5097617;28;20028;-61
2023/12/28 10:36:52;;;;;;;16.90;3.53;;;;;;;10.78;70.92;101126.88;5075656;28;20364;-62
2023/12/28 10:39:19;;;;;;;17.05;3.47;;;;;;;10.80;70.59;101113.56;5080567;28;20023;-61
2023/12/28 10:41:49;;;;;;;14.98;3.85;;;;;;;10.78;70.42;101115.78;5103592;27;20077;-61
2023/12/28 10:44:19;;;;;;;17.90;4.00;;;;;;;10.78;70.69;101115.78;5091729;28;20024;-61
2023/12/28 10:46:47;;;;;;;15.65;3.30;;;;;;;10.83;70.52;101110.31;5091999;28;20036;-61
2023/12/28 10:49:16;;;;;;;21.80;3.33;;;;;;;10.86;70.54;101108.97;5094433;28;20028;-61
2023/12/28 10:51:43;;;;;;;14.43;2.90;;;;;;;11.06;72.89;101107.41;5105179;28;20103;-61
2023/12/28 10:54:21;;;;;;;14.32;3.47;;;;;;;11.14;70.61;101113.66;5088448;28;20024;-61
2023/12/28 10:56:52;;;;;;;19.65;8.63;;;;;;;11.18;69.79;101107.34;5078034;28;20051;-61
2023/12/28 10:59:37;;;;;;;25.75;6.20;;;;;;;11.20;69.61;101107.94;5082025;28;20466;-61
2023/12/28 11:02:03;;;;;;;36.80;4.25;;;;;;;11.20;69.01;101107.09;5077656;28;20058;-61
2023/12/28 11:04:42;;;;;;;15.00;3.03;;;;;;;11.63;74.85;101114.78;5088578;28;20032;-63
2023/12/28 11:07:12;;;;;;;17.52;3.45;;;;;;;11.51;68.60;101114.00;5080195;28;20071;-62
2023/12/28 11:09:38;;;;;;;16.88;4.15;;;;;;;11.46;68.34;101120.31;5091625;28;20122;-62
2023/12/28 11:12:07;;;;;;;18.30;3.40;;;;;;;11.43;67.96;101100.53;5097349;28;20455;-62
2023/12/28 11:14:34;;;;;;;22.35;4.07;;;;;;;11.36;67.90;101099.84;5090088;28;20032;-62
2023/12/28 11:17:01;;;;;;;14.38;3.40;;;;;;;11.33;68.59;101105.94;5081527;28;20016;-63
2023/12/28 11:19:27;;;;;;;15.73;2.83;;;;;;;11.31;68.95;101106.16;5091764;28;20063;-62